sensor_id;sensor_type;location;lat;lon;timestamp;P1;durP1;ratioP1;P2;durP2;ratioP2
45103;SDS011;30865;51.288;4.572;2023-03-31T00:01:47;9.05;;;3.22;;
45103;SDS011;30865;51.288;4.572;2023-03-31T00:04:13;9.38;;;3.22;;
45103;SDS011;30865;51.288;4.572;2023-03-31T00:06:39;11.35;;;3.97;;
45103;SDS011;30865;51.288;4.572;2023-03-31T00:09:10;9.93;;;3.53;;
45103;SDS011;30865;51.288;4.572;2023-03-31T00:11:37;10.20;;;3.67;;
45103;SDS011;30865;51.288;4.572;2023-03-31T00:14:04;8.10;;;3.08;;
45103;SDS011;30865;51.288;4.572;2023-03-31T00:16:33;8.50;;;3.13;;
45103;SDS011;30865;51.288;4.572;2023-03-31T00:19:00;5.40;;;2.30;;
45103;SDS011;30865;51.288;4.572;2023-03-31T00:21:26;7.07;;;3.05;;
45103;SDS011;30865;51.288;4.572;2023-03-31T00:24:06;8.07;;;3.72;;
45103;SDS011;30865;51.288;4.572;2023-03-31T00:26:35;15.27;;;4.28;;
45103;SDS011;30865;51.288;4.572;2023-03-31T00:29:01;9.93;;;3.22;;
45103;SDS011;30865;51.288;4.572;2023-03-31T00:31:28;10.18;;;3.90;;
45103;SDS011;30865;51.288;4.572;2023-03-31T00:33:54;7.32;;;3.20;;
45103;SDS011;30865;51.288;4.572;2023-03-31T00:36:20;9.32;;;2.97;;
45103;SDS011;30865;51.288;4.572;2023-03-31T00:38:51;6.07;;;2.60;;
45103;SDS011;30865;51.288;4.572;2023-03-31T00:41:23;6.35;;;2.38;;
45103;SDS011;30865;51.288;4.572;2023-03-31T00:46:48;9.38;;;2.88;;
45103;SDS011;30865;51.288;4.572;2023-03-31T00:49:33;9.00;;;3.05;;
45103;SDS011;30865;51.288;4.572;2023-03-31T00:52:14;8.35;;;3.15;;
45103;SDS011;30865;51.288;4.572;2023-03-31T00:54:44;8.02;;;3.78;;
45103;SDS011;30865;51.288;4.572;2023-03-31T00:57:13;7.57;;;3.30;;
45103;SDS011;30865;51.288;4.572;2023-03-31T00:59:45;5.55;;;2.70;;
45103;SDS011;30865;51.288;4.572;2023-03-31T01:02:13;9.18;;;2.85;;
45103;SDS011;30865;51.288;4.572;2023-03-31T01:04:41;20.05;;;4.43;;
45103;SDS011;30865;51.288;4.572;2023-03-31T01:07:15;7.65;;;3.15;;
45103;SDS011;30865;51.288;4.572;2023-03-31T01:09:47;7.60;;;3.00;;
45103;SDS011;30865;51.288;4.572;2023-03-31T01:12:14;6.53;;;2.75;;
45103;SDS011;30865;51.288;4.572;2023-03-31T01:14:42;11.52;;;3.05;;
45103;SDS011;30865;51.288;4.572;2023-03-31T01:17:07;7.97;;;3.60;;
45103;SDS011;30865;51.288;4.572;2023-03-31T01:22:35;8.82;;;3.35;;
45103;SDS011;30865;51.288;4.572;2023-03-31T01:25:19;6.40;;;3.00;;
45103;SDS011;30865;51.288;4.572;2023-03-31T01:28:22;4.00;;;2.22;;
45103;SDS011;30865;51.288;4.572;2023-03-31T01:33:55;2.47;;;1.90;;
45103;SDS011;30865;51.288;4.572;2023-03-31T01:39:26;6.28;;;3.08;;
45103;SDS011;30865;51.288;4.572;2023-03-31T01:44:48;12.80;;;2.85;;
45103;SDS011;30865;51.288;4.572;2023-03-31T01:47:18;9.77;;;2.83;;
45103;SDS011;30865;51.288;4.572;2023-03-31T01:52:41;5.97;;;1.73;;
45103;SDS011;30865;51.288;4.572;2023-03-31T01:55:35;6.10;;;1.90;;
45103;SDS011;30865;51.288;4.572;2023-03-31T01:58:13;5.78;;;1.65;;
45103;SDS011;30865;51.288;4.572;2023-03-31T02:00:51;6.25;;;2.15;;
45103;SDS011;30865;51.288;4.572;2023-03-31T02:03:27;7.38;;;1.73;;
45103;SDS011;30865;51.288;4.572;2023-03-31T02:05:58;6.03;;;1.30;;
45103;SDS011;30865;51.288;4.572;2023-03-31T02:08:30;7.45;;;1.38;;
45103;SDS011;30865;51.288;4.572;2023-03-31T02:11:00;7.85;;;2.20;;
45103;SDS011;30865;51.288;4.572;2023-03-31T02:13:26;4.75;;;1.75;;
45103;SDS011;30865;51.288;4.572;2023-03-31T02:15:54;4.03;;;1.38;;
45103;SDS011;30865;51.288;4.572;2023-03-31T02:18:26;3.75;;;1.23;;
45103;SDS011;30865;51.288;4.572;2023-03-31T02:20:54;3.75;;;1.10;;
45103;SDS011;30865;51.288;4.572;2023-03-31T02:23:23;5.75;;;1.40;;
45103;SDS011;30865;51.288;4.572;2023-03-31T02:25:54;1.83;;;1.13;;
45103;SDS011;30865;51.288;4.572;2023-03-31T02:28:41;4.25;;;1.20;;
45103;SDS011;30865;51.288;4.572;2023-03-31T02:33:42;4.45;;;1.92;;
45103;SDS011;30865;51.288;4.572;2023-03-31T02:36:07;3.75;;;1.40;;
45103;SDS011;30865;51.288;4.572;2023-03-31T02:38:35;6.68;;;1.38;;
45103;SDS011;30865;51.288;4.572;2023-03-31T02:41:06;4.85;;;1.23;;
45103;SDS011;30865;51.288;4.572;2023-03-31T02:43:32;4.28;;;1.83;;
45103;SDS011;30865;51.288;4.572;2023-03-31T02:45:58;4.63;;;1.98;;
45103;SDS011;30865;51.288;4.572;2023-03-31T02:48:25;6.00;;;1.77;;
45103;SDS011;30865;51.288;4.572;2023-03-31T02:53:33;5.43;;;2.00;;
45103;SDS011;30865;51.288;4.572;2023-03-31T02:56:31;7.53;;;2.65;;
45103;SDS011;30865;51.288;4.572;2023-03-31T03:01:49;7.20;;;2.00;;
45103;SDS011;30865;51.288;4.572;2023-03-31T03:04:35;5.68;;;2.22;;
45103;SDS011;30865;51.288;4.572;2023-03-31T03:07:22;7.82;;;3.03;;
45103;SDS011;30865;51.288;4.572;2023-03-31T03:10:12;7.30;;;3.05;;
45103;SDS011;30865;51.288;4.572;2023-03-31T03:13:34;9.00;;;3.35;;
45103;SDS011;30865;51.288;4.572;2023-03-31T03:16:00;7.35;;;3.75;;
45103;SDS011;30865;51.288;4.572;2023-03-31T03:18:37;5.00;;;2.75;;
45103;SDS011;30865;51.288;4.572;2023-03-31T03:21:03;4.32;;;1.33;;
45103;SDS011;30865;51.288;4.572;2023-03-31T03:23:29;4.25;;;2.03;;
45103;SDS011;30865;51.288;4.572;2023-03-31T03:25:55;2.70;;;1.45;;
45103;SDS011;30865;51.288;4.572;2023-03-31T03:28:21;3.97;;;2.00;;
45103;SDS011;30865;51.288;4.572;2023-03-31T03:30:47;5.40;;;1.88;;
45103;SDS011;30865;51.288;4.572;2023-03-31T03:33:12;9.75;;;2.75;;
45103;SDS011;30865;51.288;4.572;2023-03-31T03:35:41;5.18;;;2.72;;
45103;SDS011;30865;51.288;4.572;2023-03-31T03:38:07;5.88;;;3.55;;
45103;SDS011;30865;51.288;4.572;2023-03-31T03:40:32;5.93;;;3.15;;
45103;SDS011;30865;51.288;4.572;2023-03-31T03:42:58;9.02;;;2.80;;
45103;SDS011;30865;51.288;4.572;2023-03-31T03:45:23;5.43;;;2.58;;
45103;SDS011;30865;51.288;4.572;2023-03-31T03:47:49;5.80;;;2.53;;
45103;SDS011;30865;51.288;4.572;2023-03-31T03:50:14;5.50;;;1.85;;
45103;SDS011;30865;51.288;4.572;2023-03-31T03:52:40;8.18;;;2.58;;
45103;SDS011;30865;51.288;4.572;2023-03-31T03:55:06;5.18;;;2.50;;
45103;SDS011;30865;51.288;4.572;2023-03-31T03:57:31;9.07;;;2.35;;
45103;SDS011;30865;51.288;4.572;2023-03-31T03:59:57;4.43;;;2.38;;
45103;SDS011;30865;51.288;4.572;2023-03-31T04:02:22;10.45;;;3.58;;
45103;SDS011;30865;51.288;4.572;2023-03-31T04:04:48;4.95;;;2.47;;
45103;SDS011;30865;51.288;4.572;2023-03-31T04:07:14;3.53;;;2.60;;
45103;SDS011;30865;51.288;4.572;2023-03-31T04:09:40;5.15;;;2.50;;
45103;SDS011;30865;51.288;4.572;2023-03-31T04:12:05;4.97;;;2.30;;
45103;SDS011;30865;51.288;4.572;2023-03-31T04:14:31;5.78;;;2.20;;
45103;SDS011;30865;51.288;4.572;2023-03-31T04:16:56;5.93;;;2.63;;
45103;SDS011;30865;51.288;4.572;2023-03-31T04:19:22;9.90;;;3.10;;
45103;SDS011;30865;51.288;4.572;2023-03-31T04:21:51;7.25;;;2.22;;
45103;SDS011;30865;51.288;4.572;2023-03-31T04:24:26;7.65;;;3.15;;
45103;SDS011;30865;51.288;4.572;2023-03-31T04:26:56;9.30;;;3.35;;
45103;SDS011;30865;51.288;4.572;2023-03-31T04:29:23;8.57;;;2.72;;
45103;SDS011;30865;51.288;4.572;2023-03-31T04:31:51;8.10;;;3.30;;
45103;SDS011;30865;51.288;4.572;2023-03-31T04:34:18;9.30;;;3.80;;
45103;SDS011;30865;51.288;4.572;2023-03-31T04:36:46;11.50;;;4.30;;
45103;SDS011;30865;51.288;4.572;2023-03-31T04:39:12;9.75;;;3.75;;
45103;SDS011;30865;51.288;4.572;2023-03-31T04:41:40;8.50;;;4.40;;
45103;SDS011;30865;51.288;4.572;2023-03-31T04:44:05;15.48;;;4.90;;
45103;SDS011;30865;51.288;4.572;2023-03-31T04:46:32;7.30;;;3.95;;
45103;SDS011;30865;51.288;4.572;2023-03-31T04:48:58;10.50;;;4.28;;
45103;SDS011;30865;51.288;4.572;2023-03-31T04:51:24;10.27;;;3.90;;
45103;SDS011;30865;51.288;4.572;2023-03-31T04:53:50;10.73;;;3.72;;
45103;SDS011;30865;51.288;4.572;2023-03-31T04:56:16;12.43;;;4.78;;
45103;SDS011;30865;51.288;4.572;2023-03-31T04:58:41;16.98;;;4.00;;
45103;SDS011;30865;51.288;4.572;2023-03-31T05:01:08;8.40;;;4.55;;
45103;SDS011;30865;51.288;4.572;2023-03-31T05:03:34;9.18;;;3.80;;
45103;SDS011;30865;51.288;4.572;2023-03-31T05:05:59;9.05;;;3.30;;
45103;SDS011;30865;51.288;4.572;2023-03-31T05:08:25;6.95;;;3.28;;
45103;SDS011;30865;51.288;4.572;2023-03-31T05:10:53;13.10;;;3.95;;
45103;SDS011;30865;51.288;4.572;2023-03-31T05:13:19;9.40;;;3.33;;
45103;SDS011;30865;51.288;4.572;2023-03-31T05:15:45;12.20;;;4.05;;
45103;SDS011;30865;51.288;4.572;2023-03-31T05:18:12;8.82;;;4.28;;
45103;SDS011;30865;51.288;4.572;2023-03-31T05:20:37;15.77;;;6.55;;
45103;SDS011;30865;51.288;4.572;2023-03-31T05:23:03;12.65;;;6.38;;
45103;SDS011;30865;51.288;4.572;2023-03-31T05:25:28;13.10;;;6.78;;
45103;SDS011;30865;51.288;4.572;2023-03-31T05:27:57;18.25;;;9.85;;
45103;SDS011;30865;51.288;4.572;2023-03-31T05:30:23;14.05;;;5.82;;
45103;SDS011;30865;51.288;4.572;2023-03-31T05:32:50;12.50;;;3.92;;
45103;SDS011;30865;51.288;4.572;2023-03-31T05:35:16;8.60;;;3.03;;
45103;SDS011;30865;51.288;4.572;2023-03-31T05:37:41;6.43;;;2.60;;
45103;SDS011;30865;51.288;4.572;2023-03-31T05:40:07;10.52;;;3.67;;
45103;SDS011;30865;51.288;4.572;2023-03-31T05:42:33;10.45;;;4.55;;
45103;SDS011;30865;51.288;4.572;2023-03-31T05:44:59;13.25;;;5.10;;
45103;SDS011;30865;51.288;4.572;2023-03-31T05:47:24;11.05;;;4.50;;
45103;SDS011;30865;51.288;4.572;2023-03-31T05:49:50;12.20;;;4.40;;
45103;SDS011;30865;51.288;4.572;2023-03-31T05:52:16;5.82;;;3.90;;
45103;SDS011;30865;51.288;4.572;2023-03-31T05:54:41;9.65;;;4.18;;
45103;SDS011;30865;51.288;4.572;2023-03-31T05:57:08;9.40;;;4.72;;
45103;SDS011;30865;51.288;4.572;2023-03-31T05:59:34;14.80;;;4.18;;
45103;SDS011;30865;51.288;4.572;2023-03-31T06:02:00;7.75;;;3.70;;
45103;SDS011;30865;51.288;4.572;2023-03-31T06:04:28;10.95;;;3.60;;
45103;SDS011;30865;51.288;4.572;2023-03-31T06:06:56;8.10;;;3.28;;
45103;SDS011;30865;51.288;4.572;2023-03-31T06:09:22;13.02;;;3.95;;
45103;SDS011;30865;51.288;4.572;2023-03-31T06:11:48;10.27;;;3.95;;
45103;SDS011;30865;51.288;4.572;2023-03-31T06:14:14;9.55;;;5.03;;
45103;SDS011;30865;51.288;4.572;2023-03-31T06:16:39;11.68;;;4.03;;
45103;SDS011;30865;51.288;4.572;2023-03-31T06:19:05;17.27;;;5.95;;
45103;SDS011;30865;51.288;4.572;2023-03-31T06:21:31;14.77;;;5.18;;
45103;SDS011;30865;51.288;4.572;2023-03-31T06:23:57;17.52;;;7.78;;
45103;SDS011;30865;51.288;4.572;2023-03-31T06:26:24;12.82;;;6.15;;
45103;SDS011;30865;51.288;4.572;2023-03-31T06:28:50;21.08;;;6.78;;
45103;SDS011;30865;51.288;4.572;2023-03-31T06:31:17;15.68;;;6.10;;
45103;SDS011;30865;51.288;4.572;2023-03-31T06:33:44;27.42;;;15.45;;
45103;SDS011;30865;51.288;4.572;2023-03-31T06:36:11;25.88;;;11.57;;
45103;SDS011;30865;51.288;4.572;2023-03-31T06:38:38;23.25;;;13.05;;
45103;SDS011;30865;51.288;4.572;2023-03-31T06:41:04;20.65;;;10.27;;
45103;SDS011;30865;51.288;4.572;2023-03-31T06:43:30;17.23;;;9.43;;
45103;SDS011;30865;51.288;4.572;2023-03-31T06:45:56;22.27;;;10.77;;
45103;SDS011;30865;51.288;4.572;2023-03-31T06:48:22;14.10;;;5.85;;
45103;SDS011;30865;51.288;4.572;2023-03-31T06:50:49;22.63;;;10.40;;
45103;SDS011;30865;51.288;4.572;2023-03-31T06:53:16;18.00;;;7.35;;
45103;SDS011;30865;51.288;4.572;2023-03-31T06:55:42;16.55;;;8.93;;
45103;SDS011;30865;51.288;4.572;2023-03-31T06:58:07;43.25;;;21.80;;
45103;SDS011;30865;51.288;4.572;2023-03-31T07:00:33;20.40;;;10.55;;
45103;SDS011;30865;51.288;4.572;2023-03-31T07:02:58;33.72;;;16.48;;
45103;SDS011;30865;51.288;4.572;2023-03-31T07:05:25;28.92;;;11.93;;
45103;SDS011;30865;51.288;4.572;2023-03-31T07:07:52;19.15;;;8.68;;
45103;SDS011;30865;51.288;4.572;2023-03-31T07:10:19;14.30;;;6.13;;
45103;SDS011;30865;51.288;4.572;2023-03-31T07:12:44;17.95;;;8.20;;
45103;SDS011;30865;51.288;4.572;2023-03-31T07:15:10;12.93;;;6.20;;
45103;SDS011;30865;51.288;4.572;2023-03-31T07:17:35;12.95;;;5.38;;
45103;SDS011;30865;51.288;4.572;2023-03-31T07:20:08;13.00;;;6.03;;
45103;SDS011;30865;51.288;4.572;2023-03-31T07:22:38;18.45;;;5.63;;
45103;SDS011;30865;51.288;4.572;2023-03-31T07:25:05;10.57;;;4.90;;
45103;SDS011;30865;51.288;4.572;2023-03-31T07:27:32;13.32;;;4.38;;
45103;SDS011;30865;51.288;4.572;2023-03-31T07:29:58;9.00;;;4.78;;
45103;SDS011;30865;51.288;4.572;2023-03-31T07:32:23;10.57;;;5.15;;
45103;SDS011;30865;51.288;4.572;2023-03-31T07:34:49;9.25;;;5.18;;
45103;SDS011;30865;51.288;4.572;2023-03-31T07:37:14;15.57;;;7.65;;
45103;SDS011;30865;51.288;4.572;2023-03-31T07:39:40;11.30;;;6.40;;
45103;SDS011;30865;51.288;4.572;2023-03-31T07:42:05;11.13;;;5.82;;
45103;SDS011;30865;51.288;4.572;2023-03-31T07:44:34;9.70;;;5.05;;
45103;SDS011;30865;51.288;4.572;2023-03-31T07:47:01;13.57;;;6.70;;
45103;SDS011;30865;51.288;4.572;2023-03-31T07:49:32;7.57;;;3.20;;
45103;SDS011;30865;51.288;4.572;2023-03-31T07:51:58;6.82;;;3.47;;
45103;SDS011;30865;51.288;4.572;2023-03-31T07:54:24;8.00;;;5.55;;
45103;SDS011;30865;51.288;4.572;2023-03-31T07:56:50;4.85;;;3.10;;
45103;SDS011;30865;51.288;4.572;2023-03-31T07:59:16;7.18;;;2.97;;
45103;SDS011;30865;51.288;4.572;2023-03-31T08:01:41;11.50;;;5.50;;
45103;SDS011;30865;51.288;4.572;2023-03-31T08:04:08;6.20;;;3.72;;
45103;SDS011;30865;51.288;4.572;2023-03-31T08:06:35;6.25;;;3.53;;
45103;SDS011;30865;51.288;4.572;2023-03-31T08:09:01;10.07;;;4.93;;
45103;SDS011;30865;51.288;4.572;2023-03-31T08:11:27;6.35;;;4.40;;
45103;SDS011;30865;51.288;4.572;2023-03-31T08:13:53;10.57;;;3.65;;
45103;SDS011;30865;51.288;4.572;2023-03-31T08:16:19;3.40;;;1.77;;
45103;SDS011;30865;51.288;4.572;2023-03-31T08:18:44;12.57;;;6.80;;
45103;SDS011;30865;51.288;4.572;2023-03-31T08:21:10;7.22;;;3.70;;
45103;SDS011;30865;51.288;4.572;2023-03-31T08:23:36;5.32;;;3.00;;
45103;SDS011;30865;51.288;4.572;2023-03-31T08:26:06;11.55;;;4.10;;
45103;SDS011;30865;51.288;4.572;2023-03-31T08:28:36;1.88;;;1.40;;
45103;SDS011;30865;51.288;4.572;2023-03-31T08:31:03;1.38;;;1.00;;
45103;SDS011;30865;51.288;4.572;2023-03-31T08:33:29;2.17;;;1.08;;
45103;SDS011;30865;51.288;4.572;2023-03-31T08:35:57;3.45;;;1.20;;
45103;SDS011;30865;51.288;4.572;2023-03-31T08:38:28;2.35;;;1.00;;
45103;SDS011;30865;51.288;4.572;2023-03-31T08:41:03;10.90;;;2.53;;
45103;SDS011;30865;51.288;4.572;2023-03-31T08:43:32;3.50;;;1.45;;
45103;SDS011;30865;51.288;4.572;2023-03-31T08:46:05;2.85;;;1.73;;
45103;SDS011;30865;51.288;4.572;2023-03-31T08:48:40;10.57;;;2.78;;
45103;SDS011;30865;51.288;4.572;2023-03-31T08:53:50;3.83;;;0.88;;
45103;SDS011;30865;51.288;4.572;2023-03-31T08:56:23;7.13;;;2.75;;
45103;SDS011;30865;51.288;4.572;2023-03-31T08:58:51;2.97;;;1.08;;
45103;SDS011;30865;51.288;4.572;2023-03-31T09:04:27;4.40;;;1.20;;
45103;SDS011;30865;51.288;4.572;2023-03-31T09:10:04;2.83;;;1.02;;
45103;SDS011;30865;51.288;4.572;2023-03-31T09:15:10;4.45;;;0.85;;
45103;SDS011;30865;51.288;4.572;2023-03-31T09:17:48;4.78;;;1.25;;
45103;SDS011;30865;51.288;4.572;2023-03-31T09:22:54;5.63;;;1.75;;
45103;SDS011;30865;51.288;4.572;2023-03-31T09:25:43;3.70;;;0.60;;
45103;SDS011;30865;51.288;4.572;2023-03-31T09:28:14;4.53;;;0.75;;
45103;SDS011;30865;51.288;4.572;2023-03-31T09:30:44;2.58;;;1.20;;
45103;SDS011;30865;51.288;4.572;2023-03-31T09:35:42;3.38;;;0.90;;
45103;SDS011;30865;51.288;4.572;2023-03-31T09:38:09;6.88;;;1.35;;
45103;SDS011;30865;51.288;4.572;2023-03-31T09:40:36;4.72;;;0.85;;
45103;SDS011;30865;51.288;4.572;2023-03-31T09:45:42;1.67;;;1.10;;
45103;SDS011;30865;51.288;4.572;2023-03-31T09:48:11;5.13;;;1.15;;
45103;SDS011;30865;51.288;4.572;2023-03-31T09:50:42;2.60;;;0.95;;
45103;SDS011;30865;51.288;4.572;2023-03-31T09:53:14;4.63;;;0.93;;
45103;SDS011;30865;51.288;4.572;2023-03-31T09:55:48;3.58;;;0.80;;
45103;SDS011;30865;51.288;4.572;2023-03-31T09:58:17;2.90;;;1.30;;
45103;SDS011;30865;51.288;4.572;2023-03-31T10:01:04;2.25;;;0.65;;
45103;SDS011;30865;51.288;4.572;2023-03-31T10:03:30;8.27;;;0.95;;
45103;SDS011;30865;51.288;4.572;2023-03-31T10:08:37;1.33;;;0.57;;
45103;SDS011;30865;51.288;4.572;2023-03-31T10:11:08;2.25;;;0.95;;
45103;SDS011;30865;51.288;4.572;2023-03-31T10:18:38;3.30;;;1.17;;
45103;SDS011;30865;51.288;4.572;2023-03-31T10:21:27;3.15;;;0.80;;
45103;SDS011;30865;51.288;4.572;2023-03-31T10:23:52;3.10;;;0.90;;
45103;SDS011;30865;51.288;4.572;2023-03-31T10:26:20;3.47;;;0.80;;
45103;SDS011;30865;51.288;4.572;2023-03-31T10:28:48;4.78;;;1.02;;
45103;SDS011;30865;51.288;4.572;2023-03-31T10:31:16;3.88;;;0.93;;
45103;SDS011;30865;51.288;4.572;2023-03-31T10:33:50;7.13;;;1.35;;
45103;SDS011;30865;51.288;4.572;2023-03-31T10:36:20;5.85;;;1.15;;
45103;SDS011;30865;51.288;4.572;2023-03-31T10:38:50;14.45;;;6.28;;
45103;SDS011;30865;51.288;4.572;2023-03-31T10:41:18;3.35;;;0.93;;
45103;SDS011;30865;51.288;4.572;2023-03-31T10:43:47;3.58;;;0.88;;
45103;SDS011;30865;51.288;4.572;2023-03-31T10:49:25;2.30;;;1.10;;
45103;SDS011;30865;51.288;4.572;2023-03-31T10:51:52;3.45;;;0.98;;
45103;SDS011;30865;51.288;4.572;2023-03-31T10:54:20;4.65;;;1.00;;
45103;SDS011;30865;51.288;4.572;2023-03-31T10:56:46;6.82;;;1.83;;
45103;SDS011;30865;51.288;4.572;2023-03-31T11:04:48;2.83;;;1.08;;
45103;SDS011;30865;51.288;4.572;2023-03-31T11:07:38;9.25;;;1.50;;
45103;SDS011;30865;51.288;4.572;2023-03-31T11:13:39;7.47;;;1.42;;
45103;SDS011;30865;51.288;4.572;2023-03-31T11:16:17;5.57;;;1.35;;
45103;SDS011;30865;51.288;4.572;2023-03-31T11:21:53;1.98;;;1.08;;
45103;SDS011;30865;51.288;4.572;2023-03-31T11:24:34;4.53;;;0.80;;
45103;SDS011;30865;51.288;4.572;2023-03-31T11:27:31;5.43;;;0.80;;
45103;SDS011;30865;51.288;4.572;2023-03-31T11:35:53;1.20;;;0.20;;
45103;SDS011;30865;51.288;4.572;2023-03-31T11:38:57;2.72;;;0.68;;
45103;SDS011;30865;51.288;4.572;2023-03-31T11:41:33;3.20;;;1.23;;
45103;SDS011;30865;51.288;4.572;2023-03-31T11:44:23;1.13;;;0.60;;
45103;SDS011;30865;51.288;4.572;2023-03-31T11:49:27;0.85;;;0.50;;
45103;SDS011;30865;51.288;4.572;2023-03-31T11:56:57;2.03;;;0.20;;
45103;SDS011;30865;51.288;4.572;2023-03-31T11:59:27;3.30;;;0.63;;
45103;SDS011;30865;51.288;4.572;2023-03-31T12:04:36;3.22;;;0.93;;
45103;SDS011;30865;51.288;4.572;2023-03-31T12:07:34;0.95;;;0.60;;
45103;SDS011;30865;51.288;4.572;2023-03-31T12:10:35;0.50;;;0.28;;
45103;SDS011;30865;51.288;4.572;2023-03-31T12:16:11;0.38;;;0.10;;
45103;SDS011;30865;51.288;4.572;2023-03-31T12:19:26;3.20;;;0.30;;
45103;SDS011;30865;51.288;4.572;2023-03-31T12:21:48;0.43;;;0.22;;
45103;SDS011;30865;51.288;4.572;2023-03-31T12:24:17;2.90;;;0.20;;
45103;SDS011;30865;51.288;4.572;2023-03-31T12:26:55;1.45;;;0.47;;
45103;SDS011;30865;51.288;4.572;2023-03-31T12:29:54;1.98;;;1.08;;
45103;SDS011;30865;51.288;4.572;2023-03-31T12:32:35;2.70;;;0.55;;
45103;SDS011;30865;51.288;4.572;2023-03-31T12:35:14;1.95;;;0.60;;
45103;SDS011;30865;51.288;4.572;2023-03-31T12:46:02;1.20;;;0.20;;
45103;SDS011;30865;51.288;4.572;2023-03-31T12:48:57;0.20;;;0.15;;
45103;SDS011;30865;51.288;4.572;2023-03-31T12:51:44;0.20;;;0.13;;
45103;SDS011;30865;51.288;4.572;2023-03-31T12:54:43;1.90;;;0.20;;
45103;SDS011;30865;51.288;4.572;2023-03-31T12:57:33;1.67;;;0.63;;
45103;SDS011;30865;51.288;4.572;2023-03-31T13:02:45;3.88;;;0.55;;
45103;SDS011;30865;51.288;4.572;2023-03-31T13:08:02;4.22;;;0.63;;
45103;SDS011;30865;51.288;4.572;2023-03-31T13:10:29;0.50;;;0.20;;
45103;SDS011;30865;51.288;4.572;2023-03-31T13:13:11;1.73;;;0.60;;
45103;SDS011;30865;51.288;4.572;2023-03-31T13:15:38;2.65;;;0.50;;
45103;SDS011;30865;51.288;4.572;2023-03-31T13:18:05;6.47;;;1.10;;
45103;SDS011;30865;51.288;4.572;2023-03-31T13:23:14;1.45;;;0.80;;
45103;SDS011;30865;51.288;4.572;2023-03-31T13:25:49;4.40;;;0.80;;
45103;SDS011;30865;51.288;4.572;2023-03-31T13:30:49;1.73;;;0.70;;
45103;SDS011;30865;51.288;4.572;2023-03-31T13:33:36;0.70;;;0.30;;
45103;SDS011;30865;51.288;4.572;2023-03-31T13:36:26;1.77;;;0.63;;
45103;SDS011;30865;51.288;4.572;2023-03-31T13:42:08;3.05;;;1.38;;
45103;SDS011;30865;51.288;4.572;2023-03-31T13:44:43;1.08;;;0.40;;
45103;SDS011;30865;51.288;4.572;2023-03-31T14:04:33;1.75;;;0.10;;
45103;SDS011;30865;51.288;4.572;2023-03-31T14:07:07;0.55;;;0.17;;
45103;SDS011;30865;51.288;4.572;2023-03-31T14:09:39;0.08;;;0.00;;
45103;SDS011;30865;51.288;4.572;2023-03-31T14:17:29;2.65;;;0.30;;
45103;SDS011;30865;51.288;4.572;2023-03-31T14:30:35;1.33;;;0.17;;
45103;SDS011;30865;51.288;4.572;2023-03-31T14:33:28;1.90;;;0.45;;
45103;SDS011;30865;51.288;4.572;2023-03-31T14:36:15;0.95;;;0.55;;
45103;SDS011;30865;51.288;4.572;2023-03-31T14:38:49;0.52;;;0.20;;
45103;SDS011;30865;51.288;4.572;2023-03-31T14:41:20;0.77;;;0.30;;
45103;SDS011;30865;51.288;4.572;2023-03-31T14:43:53;1.30;;;0.85;;
45103;SDS011;30865;51.288;4.572;2023-03-31T14:46:21;0.75;;;0.10;;
45103;SDS011;30865;51.288;4.572;2023-03-31T14:48:47;1.98;;;0.10;;
45103;SDS011;30865;51.288;4.572;2023-03-31T14:51:16;1.25;;;0.40;;
45103;SDS011;30865;51.288;4.572;2023-03-31T14:53:47;0.47;;;0.15;;
45103;SDS011;30865;51.288;4.572;2023-03-31T14:56:19;1.58;;;0.15;;
45103;SDS011;30865;51.288;4.572;2023-03-31T14:58:52;0.65;;;0.30;;
45103;SDS011;30865;51.288;4.572;2023-03-31T15:01:21;3.45;;;0.60;;
45103;SDS011;30865;51.288;4.572;2023-03-31T15:03:50;0.38;;;0.20;;
45103;SDS011;30865;51.288;4.572;2023-03-31T15:06:17;2.15;;;0.57;;
45103;SDS011;30865;51.288;4.572;2023-03-31T15:08:43;1.52;;;1.15;;
45103;SDS011;30865;51.288;4.572;2023-03-31T15:11:15;2.33;;;0.50;;
45103;SDS011;30865;51.288;4.572;2023-03-31T15:13:43;0.90;;;0.60;;
45103;SDS011;30865;51.288;4.572;2023-03-31T15:16:18;2.13;;;0.60;;
45103;SDS011;30865;51.288;4.572;2023-03-31T15:18:57;0.98;;;0.32;;
45103;SDS011;30865;51.288;4.572;2023-03-31T15:21:25;1.17;;;0.20;;
45103;SDS011;30865;51.288;4.572;2023-03-31T15:23:54;4.07;;;0.40;;
45103;SDS011;30865;51.288;4.572;2023-03-31T15:26:22;4.70;;;1.23;;
45103;SDS011;30865;51.288;4.572;2023-03-31T15:31:57;0.38;;;0.15;;
45103;SDS011;30865;51.288;4.572;2023-03-31T15:34:29;1.48;;;0.52;;
45103;SDS011;30865;51.288;4.572;2023-03-31T15:37:00;0.43;;;0.32;;
45103;SDS011;30865;51.288;4.572;2023-03-31T15:39:30;1.63;;;0.40;;
45103;SDS011;30865;51.288;4.572;2023-03-31T15:41:57;3.80;;;0.40;;
45103;SDS011;30865;51.288;4.572;2023-03-31T15:47:17;1.13;;;0.40;;
45103;SDS011;30865;51.288;4.572;2023-03-31T15:50:09;0.85;;;0.40;;
45103;SDS011;30865;51.288;4.572;2023-03-31T15:52:37;1.55;;;0.30;;
45103;SDS011;30865;51.288;4.572;2023-03-31T15:55:23;2.17;;;0.35;;
45103;SDS011;30865;51.288;4.572;2023-03-31T15:58:05;3.13;;;0.45;;
45103;SDS011;30865;51.288;4.572;2023-03-31T16:00:41;1.17;;;0.38;;
45103;SDS011;30865;51.288;4.572;2023-03-31T16:03:13;2.00;;;0.40;;
45103;SDS011;30865;51.288;4.572;2023-03-31T16:05:54;0.82;;;0.40;;
45103;SDS011;30865;51.288;4.572;2023-03-31T16:08:23;2.45;;;1.00;;
45103;SDS011;30865;51.288;4.572;2023-03-31T16:10:58;3.90;;;0.80;;
45103;SDS011;30865;51.288;4.572;2023-03-31T16:13:27;1.70;;;0.50;;
45103;SDS011;30865;51.288;4.572;2023-03-31T16:15:55;2.53;;;0.80;;
45103;SDS011;30865;51.288;4.572;2023-03-31T16:20:52;2.00;;;1.08;;
45103;SDS011;30865;51.288;4.572;2023-03-31T16:23:22;2.28;;;1.17;;
45103;SDS011;30865;51.288;4.572;2023-03-31T16:25:51;2.63;;;0.43;;
45103;SDS011;30865;51.288;4.572;2023-03-31T16:28:19;2.53;;;0.60;;
45103;SDS011;30865;51.288;4.572;2023-03-31T16:30:47;2.72;;;0.98;;
45103;SDS011;30865;51.288;4.572;2023-03-31T16:33:20;1.48;;;0.93;;
45103;SDS011;30865;51.288;4.572;2023-03-31T16:35:49;3.80;;;0.68;;
45103;SDS011;30865;51.288;4.572;2023-03-31T16:38:17;7.25;;;0.98;;
45103;SDS011;30865;51.288;4.572;2023-03-31T16:40:45;0.80;;;0.40;;
45103;SDS011;30865;51.288;4.572;2023-03-31T16:43:18;2.40;;;0.47;;
45103;SDS011;30865;51.288;4.572;2023-03-31T16:45:52;0.60;;;0.50;;
45103;SDS011;30865;51.288;4.572;2023-03-31T16:48:23;2.00;;;0.40;;
45103;SDS011;30865;51.288;4.572;2023-03-31T16:50:51;0.22;;;0.20;;
45103;SDS011;30865;51.288;4.572;2023-03-31T16:53:22;1.00;;;0.60;;
45103;SDS011;30865;51.288;4.572;2023-03-31T16:55:50;1.58;;;0.60;;
45103;SDS011;30865;51.288;4.572;2023-03-31T16:58:16;1.85;;;0.20;;
45103;SDS011;30865;51.288;4.572;2023-03-31T17:00:41;1.75;;;0.57;;
45103;SDS011;30865;51.288;4.572;2023-03-31T17:03:09;1.40;;;0.25;;
45103;SDS011;30865;51.288;4.572;2023-03-31T17:05:37;0.82;;;0.25;;
45103;SDS011;30865;51.288;4.572;2023-03-31T17:08:10;0.30;;;0.20;;
45103;SDS011;30865;51.288;4.572;2023-03-31T17:10:37;0.77;;;0.30;;
45103;SDS011;30865;51.288;4.572;2023-03-31T17:13:04;1.73;;;0.55;;
45103;SDS011;30865;51.288;4.572;2023-03-31T17:15:30;2.05;;;0.50;;
45103;SDS011;30865;51.288;4.572;2023-03-31T17:17:56;1.60;;;0.50;;
45103;SDS011;30865;51.288;4.572;2023-03-31T17:20:23;1.60;;;0.50;;
45103;SDS011;30865;51.288;4.572;2023-03-31T17:22:49;1.30;;;0.40;;
45103;SDS011;30865;51.288;4.572;2023-03-31T17:25:15;6.38;;;0.63;;
45103;SDS011;30865;51.288;4.572;2023-03-31T17:27:42;1.63;;;0.70;;
45103;SDS011;30865;51.288;4.572;2023-03-31T17:30:08;3.40;;;0.77;;
45103;SDS011;30865;51.288;4.572;2023-03-31T17:32:35;9.20;;;0.82;;
45103;SDS011;30865;51.288;4.572;2023-03-31T17:35:01;5.13;;;2.22;;
45103;SDS011;30865;51.288;4.572;2023-03-31T17:37:27;4.03;;;0.85;;